sensor_id;sensor_type;location;lat;lon;timestamp;temperature;humidity
21891;DHT22;11110;52.386;16.940;2023-02-17T00:01:37;21.50;38.20
21891;DHT22;11110;52.386;16.940;2023-02-17T00:04:06;21.50;38.20
21891;DHT22;11110;52.386;16.940;2023-02-17T00:06:35;21.50;38.20
21891;DHT22;11110;52.386;16.940;2023-02-17T00:09:03;21.50;38.30
21891;DHT22;11110;52.386;16.940;2023-02-17T00:11:32;21.40;38.20
21891;DHT22;11110;52.386;16.940;2023-02-17T00:14:01;21.40;38.30
21891;DHT22;11110;52.386;16.940;2023-02-17T00:16:29;21.40;38.30
21891;DHT22;11110;52.386;16.940;2023-02-17T00:19:00;22.20;38.70
21891;DHT22;11110;52.386;16.940;2023-02-17T00:21:53;21.40;38.40
21891;DHT22;11110;52.386;16.940;2023-02-17T00:24:22;21.40;38.40
21891;DHT22;11110;52.386;16.940;2023-02-17T00:26:52;21.30;38.40
21891;DHT22;11110;52.386;16.940;2023-02-17T00:29:21;21.40;38.40
21891;DHT22;11110;52.386;16.940;2023-02-17T00:31:52;21.50;38.50
21891;DHT22;11110;52.386;16.940;2023-02-17T00:34:23;21.40;38.40
21891;DHT22;11110;52.386;16.940;2023-02-17T00:36:54;21.40;38.40
21891;DHT22;11110;52.386;16.940;2023-02-17T00:39:22;21.40;38.40
21891;DHT22;11110;52.386;16.940;2023-02-17T00:41:52;21.40;38.40
21891;DHT22;11110;52.386;16.940;2023-02-17T00:44:22;21.40;38.40
21891;DHT22;11110;52.386;16.940;2023-02-17T00:46:51;21.40;38.40
21891;DHT22;11110;52.386;16.940;2023-02-17T00:49:23;21.40;38.40
21891;DHT22;11110;52.386;16.940;2023-02-17T00:51:53;21.40;38.40
21891;DHT22;11110;52.386;16.940;2023-02-17T00:54:22;21.40;38.50
21891;DHT22;11110;52.386;16.940;2023-02-17T00:56:51;21.40;38.50
21891;DHT22;11110;52.386;16.940;2023-02-17T00:59:19;21.40;38.50
21891;DHT22;11110;52.386;16.940;2023-02-17T01:01:48;21.40;38.40
21891;DHT22;11110;52.386;16.940;2023-02-17T01:04:17;21.40;38.40
21891;DHT22;11110;52.386;16.940;2023-02-17T01:06:47;21.40;38.50
21891;DHT22;11110;52.386;16.940;2023-02-17T01:09:16;21.40;38.60
21891;DHT22;11110;52.386;16.940;2023-02-17T01:11:44;21.40;38.50
21891;DHT22;11110;52.386;16.940;2023-02-17T01:14:14;21.40;38.50
21891;DHT22;11110;52.386;16.940;2023-02-17T01:16:45;21.40;38.50
21891;DHT22;11110;52.386;16.940;2023-02-17T01:19:16;21.40;38.50
21891;DHT22;11110;52.386;16.940;2023-02-17T01:21:49;21.40;38.50
21891;DHT22;11110;52.386;16.940;2023-02-17T01:24:17;21.40;38.50
21891;DHT22;11110;52.386;16.940;2023-02-17T01:26:46;21.40;38.70
21891;DHT22;11110;52.386;16.940;2023-02-17T01:29:14;21.40;38.70
21891;DHT22;11110;52.386;16.940;2023-02-17T01:31:44;21.40;38.60
21891;DHT22;11110;52.386;16.940;2023-02-17T01:34:12;21.40;38.70
21891;DHT22;11110;52.386;16.940;2023-02-17T01:36:41;21.40;38.80
21891;DHT22;11110;52.386;16.940;2023-02-17T01:39:12;21.40;38.80
21891;DHT22;11110;52.386;16.940;2023-02-17T01:41:42;21.40;38.70
21891;DHT22;11110;52.386;16.940;2023-02-17T01:44:14;21.40;38.70
21891;DHT22;11110;52.386;16.940;2023-02-17T01:46:44;21.40;38.70
21891;DHT22;11110;52.386;16.940;2023-02-17T01:49:28;21.40;38.80
21891;DHT22;11110;52.386;16.940;2023-02-17T01:52:02;21.50;38.80
21891;DHT22;11110;52.386;16.940;2023-02-17T01:54:38;21.50;38.70
21891;DHT22;11110;52.386;16.940;2023-02-17T01:57:09;21.50;38.80
21891;DHT22;11110;52.386;16.940;2023-02-17T01:59:39;21.40;38.80
21891;DHT22;11110;52.386;16.940;2023-02-17T02:02:11;21.50;38.80
21891;DHT22;11110;52.386;16.940;2023-02-17T02:04:42;21.50;38.70
21891;DHT22;11110;52.386;16.940;2023-02-17T02:07:17;21.40;38.70
21891;DHT22;11110;52.386;16.940;2023-02-17T02:09:50;21.50;38.80
21891;DHT22;11110;52.386;16.940;2023-02-17T02:12:22;21.40;38.80
21891;DHT22;11110;52.386;16.940;2023-02-17T02:14:53;21.40;38.80
21891;DHT22;11110;52.386;16.940;2023-02-17T02:17:30;21.40;38.80
21891;DHT22;11110;52.386;16.940;2023-02-17T02:23:28;21.50;38.80
21891;DHT22;11110;52.386;16.940;2023-02-17T02:26:48;21.40;38.80
21891;DHT22;11110;52.386;16.940;2023-02-17T02:29:44;21.30;38.30
21891;DHT22;11110;52.386;16.940;2023-02-17T02:32:42;21.50;38.90
21891;DHT22;11110;52.386;16.940;2023-02-17T02:35:15;21.50;38.90
21891;DHT22;11110;52.386;16.940;2023-02-17T02:37:50;21.50;38.90
21891;DHT22;11110;52.386;16.940;2023-02-17T02:40:23;21.40;38.90
21891;DHT22;11110;52.386;16.940;2023-02-17T02:42:55;21.40;39.00
21891;DHT22;11110;52.386;16.940;2023-02-17T02:45:24;21.40;39.00
21891;DHT22;11110;52.386;16.940;2023-02-17T02:47:56;21.40;39.60
21891;DHT22;11110;52.386;16.940;2023-02-17T02:50:42;21.40;38.90
21891;DHT22;11110;52.386;16.940;2023-02-17T02:53:39;21.40;38.90
21891;DHT22;11110;52.386;16.940;2023-02-17T02:56:14;21.40;38.90
21891;DHT22;11110;52.386;16.940;2023-02-17T02:58:50;21.40;39.00
21891;DHT22;11110;52.386;16.940;2023-02-17T03:01:31;21.40;39.00
21891;DHT22;11110;52.386;16.940;2023-02-17T03:04:09;21.40;38.90
21891;DHT22;11110;52.386;16.940;2023-02-17T03:06:44;21.40;38.90
21891;DHT22;11110;52.386;16.940;2023-02-17T03:09:19;21.40;38.90
21891;DHT22;11110;52.386;16.940;2023-02-17T03:11:49;21.50;39.00
21891;DHT22;11110;52.386;16.940;2023-02-17T03:14:19;21.40;38.90
21891;DHT22;11110;52.386;16.940;2023-02-17T03:16:49;21.40;38.90
21891;DHT22;11110;52.386;16.940;2023-02-17T03:19:22;21.40;38.90
21891;DHT22;11110;52.386;16.940;2023-02-17T03:21:55;21.50;39.00
21891;DHT22;11110;52.386;16.940;2023-02-17T03:24:24;21.50;39.00
21891;DHT22;11110;52.386;16.940;2023-02-17T03:26:53;21.40;38.80
21891;DHT22;11110;52.386;16.940;2023-02-17T03:29:22;21.40;38.90
21891;DHT22;11110;52.386;16.940;2023-02-17T03:31:52;21.50;39.00
21891;DHT22;11110;52.386;16.940;2023-02-17T03:34:22;21.40;38.80
21891;DHT22;11110;52.386;16.940;2023-02-17T03:36:51;21.50;38.90
21891;DHT22;11110;52.386;16.940;2023-02-17T03:39:19;21.40;38.90
21891;DHT22;11110;52.386;16.940;2023-02-17T03:41:48;21.40;38.90
21891;DHT22;11110;52.386;16.940;2023-02-17T03:44:18;21.40;39.00
21891;DHT22;11110;52.386;16.940;2023-02-17T03:46:47;21.50;39.00
21891;DHT22;11110;52.386;16.940;2023-02-17T03:49:15;21.40;39.00
21891;DHT22;11110;52.386;16.940;2023-02-17T03:51:46;21.40;38.90
21891;DHT22;11110;52.386;16.940;2023-02-17T03:54:14;21.50;39.00
21891;DHT22;11110;52.386;16.940;2023-02-17T03:56:43;21.50;39.00
21891;DHT22;11110;52.386;16.940;2023-02-17T03:59:11;21.50;39.10
21891;DHT22;11110;52.386;16.940;2023-02-17T04:01:40;21.50;39.10
21891;DHT22;11110;52.386;16.940;2023-02-17T04:04:09;21.50;39.20
21891;DHT22;11110;52.386;16.940;2023-02-17T04:06:38;21.40;39.30
21891;DHT22;11110;52.386;16.940;2023-02-17T04:09:08;21.50;39.60
21891;DHT22;11110;52.386;16.940;2023-02-17T04:11:37;21.50;39.70
21891;DHT22;11110;52.386;16.940;2023-02-17T04:14:05;21.50;39.80
21891;DHT22;11110;52.386;16.940;2023-02-17T04:16:34;21.50;39.90
21891;DHT22;11110;52.386;16.940;2023-02-17T04:19:05;21.50;40.00
21891;DHT22;11110;52.386;16.940;2023-02-17T04:21:34;21.50;40.20
21891;DHT22;11110;52.386;16.940;2023-02-17T04:24:03;21.50;40.40
21891;DHT22;11110;52.386;16.940;2023-02-17T04:26:33;21.50;40.40
21891;DHT22;11110;52.386;16.940;2023-02-17T04:29:03;21.50;40.50
21891;DHT22;11110;52.386;16.940;2023-02-17T04:31:32;21.50;40.60
21891;DHT22;11110;52.386;16.940;2023-02-17T04:34:01;21.50;40.70
21891;DHT22;11110;52.386;16.940;2023-02-17T04:36:30;21.40;40.70
21891;DHT22;11110;52.386;16.940;2023-02-17T04:38:58;21.40;40.80
21891;DHT22;11110;52.386;16.940;2023-02-17T04:41:27;21.40;40.90
21891;DHT22;11110;52.386;16.940;2023-02-17T04:43:57;21.40;41.00
21891;DHT22;11110;52.386;16.940;2023-02-17T04:46:26;21.40;41.00
21891;DHT22;11110;52.386;16.940;2023-02-17T04:48:54;21.40;41.20
21891;DHT22;11110;52.386;16.940;2023-02-17T04:51:23;21.40;41.30
21891;DHT22;11110;52.386;16.940;2023-02-17T04:53:52;21.30;41.30
21891;DHT22;11110;52.386;16.940;2023-02-17T04:56:20;21.30;41.50
21891;DHT22;11110;52.386;16.940;2023-02-17T04:58:49;21.30;41.50
21891;DHT22;11110;52.386;16.940;2023-02-17T05:01:19;21.20;41.70
21891;DHT22;11110;52.386;16.940;2023-02-17T05:03:48;21.30;41.90
21891;DHT22;11110;52.386;16.940;2023-02-17T05:06:17;21.20;41.90
21891;DHT22;11110;52.386;16.940;2023-02-17T05:08:45;21.30;42.00
21891;DHT22;11110;52.386;16.940;2023-02-17T05:11:15;21.30;42.00
21891;DHT22;11110;52.386;16.940;2023-02-17T05:13:43;21.20;42.10
21891;DHT22;11110;52.386;16.940;2023-02-17T05:16:12;21.20;42.80
21891;DHT22;11110;52.386;16.940;2023-02-17T05:18:42;21.20;42.00
21891;DHT22;11110;52.386;16.940;2023-02-17T05:21:11;21.20;42.00
21891;DHT22;11110;52.386;16.940;2023-02-17T05:23:39;21.20;42.10
21891;DHT22;11110;52.386;16.940;2023-02-17T05:26:08;21.20;42.10
21891;DHT22;11110;52.386;16.940;2023-02-17T05:28:37;21.20;42.20
21891;DHT22;11110;52.386;16.940;2023-02-17T05:31:05;21.10;42.20
21891;DHT22;11110;52.386;16.940;2023-02-17T05:33:34;21.20;42.20
21891;DHT22;11110;52.386;16.940;2023-02-17T05:36:06;21.10;42.10
21891;DHT22;11110;52.386;16.940;2023-02-17T05:38:36;21.20;42.20
21891;DHT22;11110;52.386;16.940;2023-02-17T05:41:05;21.20;42.20
21891;DHT22;11110;52.386;16.940;2023-02-17T05:43:34;21.10;42.20
21891;DHT22;11110;52.386;16.940;2023-02-17T05:46:03;21.10;42.30
21891;DHT22;11110;52.386;16.940;2023-02-17T05:48:32;21.10;42.40
21891;DHT22;11110;52.386;16.940;2023-02-17T05:51:01;21.10;42.50
21891;DHT22;11110;52.386;16.940;2023-02-17T05:53:32;21.10;42.70
21891;DHT22;11110;52.386;16.940;2023-02-17T05:56:00;21.10;42.70
21891;DHT22;11110;52.386;16.940;2023-02-17T05:58:29;21.00;42.70
21891;DHT22;11110;52.386;16.940;2023-02-17T06:00:58;21.00;42.70
21891;DHT22;11110;52.386;16.940;2023-02-17T06:03:27;21.00;42.70
21891;DHT22;11110;52.386;16.940;2023-02-17T06:05:56;21.00;42.80
21891;DHT22;11110;52.386;16.940;2023-02-17T06:08:24;21.00;42.80
21891;DHT22;11110;52.386;16.940;2023-02-17T06:10:55;21.00;42.90
21891;DHT22;11110;52.386;16.940;2023-02-17T06:13:23;21.00;43.00
21891;DHT22;11110;52.386;16.940;2023-02-17T06:15:52;21.00;43.00
21891;DHT22;11110;52.386;16.940;2023-02-17T06:18:21;21.00;43.10
21891;DHT22;11110;52.386;16.940;2023-02-17T06:20:50;21.00;43.10
21891;DHT22;11110;52.386;16.940;2023-02-17T06:23:18;21.00;43.20
21891;DHT22;11110;52.386;16.940;2023-02-17T06:25:47;21.00;43.20
21891;DHT22;11110;52.386;16.940;2023-02-17T06:28:17;21.00;43.30
21891;DHT22;11110;52.386;16.940;2023-02-17T06:30:46;21.00;43.40
21891;DHT22;11110;52.386;16.940;2023-02-17T06:33:14;21.00;43.40
21891;DHT22;11110;52.386;16.940;2023-02-17T06:35:47;21.00;43.50
21891;DHT22;11110;52.386;16.940;2023-02-17T06:38:16;21.00;43.50
21891;DHT22;11110;52.386;16.940;2023-02-17T06:40:45;20.90;43.50
21891;DHT22;11110;52.386;16.940;2023-02-17T06:43:14;21.00;43.80
21891;DHT22;11110;52.386;16.940;2023-02-17T06:45:44;20.90;43.80
21891;DHT22;11110;52.386;16.940;2023-02-17T06:48:13;20.90;43.90
21891;DHT22;11110;52.386;16.940;2023-02-17T06:50:41;20.90;43.90
21891;DHT22;11110;52.386;16.940;2023-02-17T06:53:10;21.00;44.00
21891;DHT22;11110;52.386;16.940;2023-02-17T06:55:39;21.00;44.00
21891;DHT22;11110;52.386;16.940;2023-02-17T06:58:07;21.00;44.10
21891;DHT22;11110;52.386;16.940;2023-02-17T07:00:36;21.00;44.10
21891;DHT22;11110;52.386;16.940;2023-02-17T07:03:06;21.00;44.30
21891;DHT22;11110;52.386;16.940;2023-02-17T07:05:36;21.00;44.40
21891;DHT22;11110;52.386;16.940;2023-02-17T07:08:06;21.00;44.40
21891;DHT22;11110;52.386;16.940;2023-02-17T07:10:36;21.10;44.50
21891;DHT22;11110;52.386;16.940;2023-02-17T07:13:05;21.00;44.40
21891;DHT22;11110;52.386;16.940;2023-02-17T07:15:34;21.10;44.60
21891;DHT22;11110;52.386;16.940;2023-02-17T07:18:03;21.10;44.50
21891;DHT22;11110;52.386;16.940;2023-02-17T07:20:33;21.10;44.70
21891;DHT22;11110;52.386;16.940;2023-02-17T07:23:04;21.10;44.60
21891;DHT22;11110;52.386;16.940;2023-02-17T07:25:34;21.20;44.70
21891;DHT22;11110;52.386;16.940;2023-02-17T07:28:02;21.20;44.60
21891;DHT22;11110;52.386;16.940;2023-02-17T07:30:31;21.20;44.70
21891;DHT22;11110;52.386;16.940;2023-02-17T07:33:04;21.10;44.50
21891;DHT22;11110;52.386;16.940;2023-02-17T07:35:39;21.20;44.70
21891;DHT22;11110;52.386;16.940;2023-02-17T07:38:08;21.20;44.70
21891;DHT22;11110;52.386;16.940;2023-02-17T07:40:37;21.20;44.70
21891;DHT22;11110;52.386;16.940;2023-02-17T07:43:06;21.20;44.70
21891;DHT22;11110;52.386;16.940;2023-02-17T07:45:34;21.20;44.70
21891;DHT22;11110;52.386;16.940;2023-02-17T07:48:03;21.20;44.80
21891;DHT22;11110;52.386;16.940;2023-02-17T07:50:34;21.20;44.80
21891;DHT22;11110;52.386;16.940;2023-02-17T07:53:02;21.20;44.80
21891;DHT22;11110;52.386;16.940;2023-02-17T07:55:31;21.20;44.90
21891;DHT22;11110;52.386;16.940;2023-02-17T07:57:59;21.30;45.00
21891;DHT22;11110;52.386;16.940;2023-02-17T08:00:28;21.30;45.00
21891;DHT22;11110;52.386;16.940;2023-02-17T08:02:57;21.10;44.90
21891;DHT22;11110;52.386;16.940;2023-02-17T08:05:26;21.20;45.10
21891;DHT22;11110;52.386;16.940;2023-02-17T08:07:56;21.20;45.20
21891;DHT22;11110;52.386;16.940;2023-02-17T08:10:39;21.30;45.20
21891;DHT22;11110;52.386;16.940;2023-02-17T08:13:26;21.20;45.10
21891;DHT22;11110;52.386;16.940;2023-02-17T08:15:55;21.30;45.20
21891;DHT22;11110;52.386;16.940;2023-02-17T08:18:23;21.30;45.20
21891;DHT22;11110;52.386;16.940;2023-02-17T08:20:54;21.30;45.10
21891;DHT22;11110;52.386;16.940;2023-02-17T08:23:25;21.30;45.10
21891;DHT22;11110;52.386;16.940;2023-02-17T08:25:56;21.40;45.10
21891;DHT22;11110;52.386;16.940;2023-02-17T08:28:24;21.50;45.20
21891;DHT22;11110;52.386;16.940;2023-02-17T08:30:53;21.40;45.10
21891;DHT22;11110;52.386;16.940;2023-02-17T08:33:22;21.40;45.10
21891;DHT22;11110;52.386;16.940;2023-02-17T08:35:51;21.60;45.30
21891;DHT22;11110;52.386;16.940;2023-02-17T08:38:19;21.40;45.00
21891;DHT22;11110;52.386;16.940;2023-02-17T08:40:50;21.40;45.30
21891;DHT22;11110;52.386;16.940;2023-02-17T08:43:18;21.40;45.40
21891;DHT22;11110;52.386;16.940;2023-02-17T08:45:50;21.40;45.50
21891;DHT22;11110;52.386;16.940;2023-02-17T08:48:18;21.40;45.60
21891;DHT22;11110;52.386;16.940;2023-02-17T08:50:47;21.40;45.80
21891;DHT22;11110;52.386;16.940;2023-02-17T08:53:16;21.50;45.80
21891;DHT22;11110;52.386;16.940;2023-02-17T08:55:44;21.50;45.90
21891;DHT22;11110;52.386;16.940;2023-02-17T08:58:17;21.50;45.80
21891;DHT22;11110;52.386;16.940;2023-02-17T09:00:46;21.50;46.10
21891;DHT22;11110;52.386;16.940;2023-02-17T09:03:15;21.50;46.10
21891;DHT22;11110;52.386;16.940;2023-02-17T09:05:44;21.60;46.30
21891;DHT22;11110;52.386;16.940;2023-02-17T09:08:13;21.50;46.20
21891;DHT22;11110;52.386;16.940;2023-02-17T09:10:42;21.40;46.20
21891;DHT22;11110;52.386;16.940;2023-02-17T09:13:10;21.50;46.50
21891;DHT22;11110;52.386;16.940;2023-02-17T09:15:40;21.40;46.60
21891;DHT22;11110;52.386;16.940;2023-02-17T09:18:09;21.40;46.80
21891;DHT22;11110;52.386;16.940;2023-02-17T09:20:38;21.50;47.00
21891;DHT22;11110;52.386;16.940;2023-02-17T09:23:07;21.60;47.10
21891;DHT22;11110;52.386;16.940;2023-02-17T09:25:35;21.50;47.00
21891;DHT22;11110;52.386;16.940;2023-02-17T09:28:04;21.50;47.10
21891;DHT22;11110;52.386;16.940;2023-02-17T09:30:34;21.50;47.20
21891;DHT22;11110;52.386;16.940;2023-02-17T09:33:04;21.60;47.30
21891;DHT22;11110;52.386;16.940;2023-02-17T09:35:34;21.60;47.20
21891;DHT22;11110;52.386;16.940;2023-02-17T09:38:04;21.60;47.20
21891;DHT22;11110;52.386;16.940;2023-02-17T09:40:37;21.60;47.20
21891;DHT22;11110;52.386;16.940;2023-02-17T09:43:12;21.60;47.20
21891;DHT22;11110;52.386;16.940;2023-02-17T09:45:46;21.70;47.20
21891;DHT22;11110;52.386;16.940;2023-02-17T09:48:20;21.70;47.20
21891;DHT22;11110;52.386;16.940;2023-02-17T09:50:53;21.80;47.20
21891;DHT22;11110;52.386;16.940;2023-02-17T09:53:27;21.70;47.20
21891;DHT22;11110;52.386;16.940;2023-02-17T09:56:02;21.80;47.20
21891;DHT22;11110;52.386;16.940;2023-02-17T09:58:35;21.70;47.10
21891;DHT22;11110;52.386;16.940;2023-02-17T10:01:09;21.90;47.40
21891;DHT22;11110;52.386;16.940;2023-02-17T10:03:42;21.90;47.50
21891;DHT22;11110;52.386;16.940;2023-02-17T10:06:15;21.70;47.30
21891;DHT22;11110;52.386;16.940;2023-02-17T10:08:51;21.70;47.50
21891;DHT22;11110;52.386;16.940;2023-02-17T10:11:25;21.80;47.60
21891;DHT22;11110;52.386;16.940;2023-02-17T10:14:00;21.80;47.60
21891;DHT22;11110;52.386;16.940;2023-02-17T10:16:33;22.00;47.60
21891;DHT22;11110;52.386;16.940;2023-02-17T10:19:11;22.10;47.50
21891;DHT22;11110;52.386;16.940;2023-02-17T10:21:45;21.90;47.60
21891;DHT22;11110;52.386;16.940;2023-02-17T10:24:15;21.90;47.50
21891;DHT22;11110;52.386;16.940;2023-02-17T10:26:54;21.80;47.70
21891;DHT22;11110;52.386;16.940;2023-02-17T10:29:36;22.10;48.00
21891;DHT22;11110;52.386;16.940;2023-02-17T10:32:20;22.00;47.60
21891;DHT22;11110;52.386;16.940;2023-02-17T10:35:15;22.00;47.90
21891;DHT22;11110;52.386;16.940;2023-02-17T10:37:46;22.20;47.80
21891;DHT22;11110;52.386;16.940;2023-02-17T10:40:19;22.00;47.90
21891;DHT22;11110;52.386;16.940;2023-02-17T10:42:50;22.10;48.10
21891;DHT22;11110;52.386;16.940;2023-02-17T10:45:25;22.00;48.00
21891;DHT22;11110;52.386;16.940;2023-02-17T10:48:00;22.00;47.90
21891;DHT22;11110;52.386;16.940;2023-02-17T10:50:31;22.20;48.00
21891;DHT22;11110;52.386;16.940;2023-02-17T10:53:01;22.20;48.00
21891;DHT22;11110;52.386;16.940;2023-02-17T10:55:34;22.20;47.90
21891;DHT22;11110;52.386;16.940;2023-02-17T10:58:09;22.30;47.90
21891;DHT22;11110;52.386;16.940;2023-02-17T11:00:41;22.40;48.00
21891;DHT22;11110;52.386;16.940;2023-02-17T11:03:18;22.30;47.80
21891;DHT22;11110;52.386;16.940;2023-02-17T11:05:54;22.30;47.80
21891;DHT22;11110;52.386;16.940;2023-02-17T11:08:29;22.50;48.00
21891;DHT22;11110;52.386;16.940;2023-02-17T11:11:01;22.50;47.90
21891;DHT22;11110;52.386;16.940;2023-02-17T11:13:35;22.50;48.00
21891;DHT22;11110;52.386;16.940;2023-02-17T11:16:05;22.50;47.90
21891;DHT22;11110;52.386;16.940;2023-02-17T11:18:38;22.60;47.90
21891;DHT22;11110;52.386;16.940;2023-02-17T11:21:13;22.40;47.80
21891;DHT22;11110;52.386;16.940;2023-02-17T11:23:48;22.40;47.90
21891;DHT22;11110;52.386;16.940;2023-02-17T11:26:23;22.50;48.10
21891;DHT22;11110;52.386;16.940;2023-02-17T11:28:53;22.60;48.00
21891;DHT22;11110;52.386;16.940;2023-02-17T11:31:23;22.50;47.80
21891;DHT22;11110;52.386;16.940;2023-02-17T11:33:53;22.50;48.00
21891;DHT22;11110;52.386;16.940;2023-02-17T11:36:27;22.50;48.10
21891;DHT22;11110;52.386;16.940;2023-02-17T11:38:56;22.50;48.00
21891;DHT22;11110;52.386;16.940;2023-02-17T11:41:36;22.60;48.90
21891;DHT22;11110;52.386;16.940;2023-02-17T11:44:08;22.50;48.20
21891;DHT22;11110;52.386;16.940;2023-02-17T11:46:43;22.60;48.30
21891;DHT22;11110;52.386;16.940;2023-02-17T11:55:18;22.60;48.10
21891;DHT22;11110;52.386;16.940;2023-02-17T11:58:01;22.80;48.30
21891;DHT22;11110;52.386;16.940;2023-02-17T12:00:42;22.60;48.10
21891;DHT22;11110;52.386;16.940;2023-02-17T12:06:13;22.70;48.20
21891;DHT22;11110;52.386;16.940;2023-02-17T12:09:03;22.80;48.30
21891;DHT22;11110;52.386;16.940;2023-02-17T12:11:45;22.80;48.20
21891;DHT22;11110;52.386;16.940;2023-02-17T12:14:35;22.80;48.40
21891;DHT22;11110;52.386;16.940;2023-02-17T12:17:14;22.70;48.30
21891;DHT22;11110;52.386;16.940;2023-02-17T12:19:54;22.70;48.40
21891;DHT22;11110;52.386;16.940;2023-02-17T12:22:29;22.80;48.60
21891;DHT22;11110;52.386;16.940;2023-02-17T12:25:17;22.60;48.40
21891;DHT22;11110;52.386;16.940;2023-02-17T12:28:11;22.80;48.60
21891;DHT22;11110;52.386;16.940;2023-02-17T12:30:52;22.60;48.50
21891;DHT22;11110;52.386;16.940;2023-02-17T12:33:40;22.80;48.70
21891;DHT22;11110;52.386;16.940;2023-02-17T12:36:12;22.80;48.60
21891;DHT22;11110;52.386;16.940;2023-02-17T12:38:44;22.80;48.70
21891;DHT22;11110;52.386;16.940;2023-02-17T12:41:18;22.80;48.60
21891;DHT22;11110;52.386;16.940;2023-02-17T12:43:50;22.80;48.70
21891;DHT22;11110;52.386;16.940;2023-02-17T12:46:24;22.80;48.60
21891;DHT22;11110;52.386;16.940;2023-02-17T12:48:57;22.80;48.60
21891;DHT22;11110;52.386;16.940;2023-02-17T12:51:30;22.90;48.70
21891;DHT22;11110;52.386;16.940;2023-02-17T12:54:05;23.00;48.80
21891;DHT22;11110;52.386;16.940;2023-02-17T12:56:56;22.90;48.70
21891;DHT22;11110;52.386;16.940;2023-02-17T12:59:32;23.10;48.70
21891;DHT22;11110;52.386;16.940;2023-02-17T13:02:03;22.90;48.70
21891;DHT22;11110;52.386;16.940;2023-02-17T13:04:34;22.80;48.80
21891;DHT22;11110;52.386;16.940;2023-02-17T13:07:17;22.80;48.80
21891;DHT22;11110;52.386;16.940;2023-02-17T13:09:49;22.80;48.80
21891;DHT22;11110;52.386;16.940;2023-02-17T13:12:33;23.00;48.90
21891;DHT22;11110;52.386;16.940;2023-02-17T13:15:04;22.80;48.80
21891;DHT22;11110;52.386;16.940;2023-02-17T13:17:38;22.80;48.90
21891;DHT22;11110;52.386;16.940;2023-02-17T13:20:38;22.80;48.90
21891;DHT22;11110;52.386;16.940;2023-02-17T13:23:11;23.00;49.00
21891;DHT22;11110;52.386;16.940;2023-02-17T13:25:41;22.80;48.90
21891;DHT22;11110;52.386;16.940;2023-02-17T13:28:34;22.80;49.00
21891;DHT22;11110;52.386;16.940;2023-02-17T13:31:09;22.90;49.10
21891;DHT22;11110;52.386;16.940;2023-02-17T13:33:42;22.80;49.20
21891;DHT22;11110;52.386;16.940;2023-02-17T13:36:14;22.80;49.20
21891;DHT22;11110;52.386;16.940;2023-02-17T13:38:54;23.00;49.20
21891;DHT22;11110;52.386;16.940;2023-02-17T13:41:23;22.80;49.10
21891;DHT22;11110;52.386;16.940;2023-02-17T13:43:53;22.80;49.20
21891;DHT22;11110;52.386;16.940;2023-02-17T13:46:25;23.00;49.20
21891;DHT22;11110;52.386;16.940;2023-02-17T13:49:02;22.80;49.10
21891;DHT22;11110;52.386;16.940;2023-02-17T13:51:32;22.80;49.20
21891;DHT22;11110;52.386;16.940;2023-02-17T13:54:06;22.80;49.30
21891;DHT22;11110;52.386;16.940;2023-02-17T13:56:35;22.80;49.30
21891;DHT22;11110;52.386;16.940;2023-02-17T13:59:12;22.80;49.30
21891;DHT22;11110;52.386;16.940;2023-02-17T14:01:45;22.80;49.20
21891;DHT22;11110;52.386;16.940;2023-02-17T14:04:20;23.00;49.20
21891;DHT22;11110;52.386;16.940;2023-02-17T14:06:50;22.80;49.30
21891;DHT22;11110;52.386;16.940;2023-02-17T14:09:24;22.90;49.40
21891;DHT22;11110;52.386;16.940;2023-02-17T14:11:54;22.80;49.30
21891;DHT22;11110;52.386;16.940;2023-02-17T14:14:29;22.90;49.20
21891;DHT22;11110;52.386;16.940;2023-02-17T14:17:01;22.70;49.30
21891;DHT22;11110;52.386;16.940;2023-02-17T14:19:41;22.70;49.50
21891;DHT22;11110;52.386;16.940;2023-02-17T14:22:23;22.80;49.60
21891;DHT22;11110;52.386;16.940;2023-02-17T14:25:00;22.70;49.60
21891;DHT22;11110;52.386;16.940;2023-02-17T14:27:39;22.90;49.80
21891;DHT22;11110;52.386;16.940;2023-02-17T14:30:14;22.80;49.60
21891;DHT22;11110;52.386;16.940;2023-02-17T14:32:43;23.00;49.70
21891;DHT22;11110;52.386;16.940;2023-02-17T14:35:22;23.00;49.40
21891;DHT22;11110;52.386;16.940;2023-02-17T14:37:52;22.90;49.60
21891;DHT22;11110;52.386;16.940;2023-02-17T14:40:22;22.80;49.50
21891;DHT22;11110;52.386;16.940;2023-02-17T14:42:51;22.80;49.60
21891;DHT22;11110;52.386;16.940;2023-02-17T14:45:21;22.80;50.30
21891;DHT22;11110;52.386;16.940;2023-02-17T14:47:50;22.90;49.80
21891;DHT22;11110;52.386;16.940;2023-02-17T14:50:19;23.00;49.60
21891;DHT22;11110;52.386;16.940;2023-02-17T14:52:48;22.90;49.60
21891;DHT22;11110;52.386;16.940;2023-02-17T14:55:26;22.90;49.70
21891;DHT22;11110;52.386;16.940;2023-02-17T14:57:57;22.90;49.80
21891;DHT22;11110;52.386;16.940;2023-02-17T15:00:27;23.00;50.60
21891;DHT22;11110;52.386;16.940;2023-02-17T15:02:56;22.90;49.80
21891;DHT22;11110;52.386;16.940;2023-02-17T15:05:25;22.80;49.60
21891;DHT22;11110;52.386;16.940;2023-02-17T15:07:54;22.80;49.80
21891;DHT22;11110;52.386;16.940;2023-02-17T15:10:25;22.90;49.90
21891;DHT22;11110;52.386;16.940;2023-02-17T15:12:55;22.90;49.80
21891;DHT22;11110;52.386;16.940;2023-02-17T15:15:24;22.90;49.80
21891;DHT22;11110;52.386;16.940;2023-02-17T15:17:54;23.10;49.70
21891;DHT22;11110;52.386;16.940;2023-02-17T15:20:23;23.20;49.60
21891;DHT22;11110;52.386;16.940;2023-02-17T15:22:52;23.10;49.60
21891;DHT22;11110;52.386;16.940;2023-02-17T15:25:23;23.00;49.60
21891;DHT22;11110;52.386;16.940;2023-02-17T15:27:52;23.10;49.80
21891;DHT22;11110;52.386;16.940;2023-02-17T15:30:21;23.10;49.50
21891;DHT22;11110;52.386;16.940;2023-02-17T15:32:54;23.20;49.50
21891;DHT22;11110;52.386;16.940;2023-02-17T15:35:24;23.20;49.40
21891;DHT22;11110;52.386;16.940;2023-02-17T15:37:53;23.30;49.40
21891;DHT22;11110;52.386;16.940;2023-02-17T15:40:24;23.20;49.30
21891;DHT22;11110;52.386;16.940;2023-02-17T15:42:55;23.40;49.40
21891;DHT22;11110;52.386;16.940;2023-02-17T15:45:27;23.40;49.40
21891;DHT22;11110;52.386;16.940;2023-02-17T15:48:02;23.20;49.20
21891;DHT22;11110;52.386;16.940;2023-02-17T15:50:31;23.40;49.20
21891;DHT22;11110;52.386;16.940;2023-02-17T15:53:01;23.40;49.10
21891;DHT22;11110;52.386;16.940;2023-02-17T15:55:30;23.40;49.20
21891;DHT22;11110;52.386;16.940;2023-02-17T15:58:02;23.40;49.10